createdAt,value
2023-01-30T00:01:12.826Z,86.45
2023-01-30T00:03:39.378Z,86.55
2023-01-30T00:06:05.977Z,87.26
2023-01-30T00:08:32.474Z,87.03
2023-01-30T00:11:04.332Z,86.63
2023-01-30T00:13:30.829Z,87.57
2023-01-30T00:15:57.477Z,87.22
2023-01-30T00:18:24.126Z,87.61
2023-01-30T00:20:59.264Z,87.09
2023-01-30T00:23:27.116Z,86.47
2023-01-30T00:25:53.819Z,86.74
2023-01-30T00:28:20.692Z,86.84
2023-01-30T00:30:51.722Z,87.19
2023-01-30T00:33:19.230Z,88.39
2023-01-30T00:35:47.438Z,88.09
2023-01-30T00:38:14.681Z,87.57
2023-01-30T00:40:41.532Z,88.07
2023-01-30T00:43:27.835Z,88.09
2023-01-30T00:46:13.740Z,88.22
2023-01-30T00:48:40.247Z,88.47
2023-01-30T00:51:06.699Z,88.44
2023-01-30T00:53:33.262Z,87.62
2023-01-30T00:55:59.776Z,87.36
2023-01-30T00:58:26.523Z,87.57
2023-01-30T01:00:53.370Z,87.23
2023-01-30T01:03:20.242Z,88.54
2023-01-30T01:05:47.040Z,88.75
2023-01-30T01:08:13.604Z,87.41
2023-01-30T01:10:40.197Z,87.18
2023-01-30T01:13:07.064Z,87.64
2023-01-30T01:15:34.026Z,87.46
2023-01-30T01:18:00.603Z,86.76
2023-01-30T01:20:27.119Z,86.94
2023-01-30T01:22:56.012Z,86.36
2023-01-30T01:25:23.946Z,86.31
2023-01-30T01:27:50.879Z,86.74
2023-01-30T01:30:17.802Z,87.35
2023-01-30T01:32:45.065Z,87.52
2023-01-30T01:35:11.896Z,86.91
2023-01-30T01:37:38.467Z,86.61
2023-01-30T01:40:24.532Z,86.47
2023-01-30T01:42:51.139Z,86.19
2023-01-30T01:45:22.113Z,86.84
2023-01-30T01:48:03.399Z,88.21
2023-01-30T01:50:41.225Z,88.73
2023-01-30T01:53:10.408Z,87.55
2023-01-30T01:55:38.703Z,86.68
2023-01-30T01:58:11.948Z,88.12
2023-01-30T02:00:38.736Z,87.71
2023-01-30T02:03:15.108Z,87.55
2023-01-30T02:05:46.649Z,87.63
2023-01-30T02:08:26.345Z,87.75
2023-01-30T02:11:01.605Z,87.20
2023-01-30T02:13:28.504Z,86.93
2023-01-30T02:16:00.871Z,87.56
2023-01-30T02:18:29.039Z,87.78
2023-01-30T02:21:13.941Z,87.96
2023-01-30T02:24:18.142Z,88.76
2023-01-30T02:26:53.322Z,89.12
2023-01-30T02:29:50.252Z,89.50
2023-01-30T02:33:00.648Z,89.87
2023-01-30T02:35:35.852Z,89.15
2023-01-30T02:38:02.290Z,89.32
2023-01-30T02:41:00.249Z,89.16
2023-01-30T02:43:58.463Z,88.87
2023-01-30T02:46:32.312Z,88.68
2023-01-30T02:49:33.237Z,88.80
2023-01-30T02:52:02.397Z,89.82
2023-01-30T02:54:28.921Z,90.60
2023-01-30T02:56:58.683Z,90.42
2023-01-30T02:59:30.741Z,90.13
2023-01-30T03:02:29.602Z,89.89
2023-01-30T03:05:26.483Z,90.12
2023-01-30T03:08:10.668Z,89.65
2023-01-30T03:10:47.636Z,89.14
2023-01-30T03:13:40.443Z,88.71
2023-01-30T03:16:12.682Z,88.97
2023-01-30T03:18:43.586Z,89.45
2023-01-30T03:21:11.317Z,89.29
2023-01-30T03:23:37.920Z,89.74
2023-01-30T03:26:08.259Z,89.26
2023-01-30T03:28:35.555Z,89.76
2023-01-30T03:31:02.138Z,89.36
2023-01-30T03:33:28.704Z,89.30
2023-01-30T03:35:55.401Z,88.75
2023-01-30T03:38:21.987Z,88.26
2023-01-30T03:40:48.543Z,87.94
2023-01-30T03:43:15.003Z,87.34
2023-01-30T03:45:41.487Z,86.69
2023-01-30T03:48:07.971Z,86.56
2023-01-30T03:50:35.437Z,86.39
2023-01-30T03:53:01.981Z,86.62
2023-01-30T03:55:28.459Z,85.72
2023-01-30T03:57:58.328Z,86.18
2023-01-30T04:00:24.816Z,86.30
2023-01-30T04:02:52.071Z,85.93
2023-01-30T04:05:19.040Z,84.95
2023-01-30T04:07:45.779Z,84.68
2023-01-30T04:10:15.439Z,84.57
2023-01-30T04:12:42.875Z,83.96
2023-01-30T04:15:10.285Z,83.99
2023-01-30T04:17:36.744Z,82.67
2023-01-30T04:20:03.883Z,82.90
2023-01-30T04:22:30.633Z,83.26
2023-01-30T04:24:57.109Z,82.54
2023-01-30T04:27:23.601Z,83.44
2023-01-30T04:29:50.091Z,82.00
2023-01-30T04:32:16.536Z,82.99
2023-01-30T04:34:45.111Z,82.40
2023-01-30T04:37:12.520Z,80.91
2023-01-30T04:39:39.086Z,82.27
2023-01-30T04:42:05.683Z,82.79
2023-01-30T04:44:32.195Z,83.50
2023-01-30T04:46:58.695Z,83.48
2023-01-30T04:49:25.254Z,83.68
2023-01-30T04:51:51.887Z,83.96
2023-01-30T04:54:18.431Z,84.09
2023-01-30T04:56:44.916Z,82.73
2023-01-30T04:59:11.431Z,82.43
2023-01-30T05:01:39.194Z,83.27
2023-01-30T05:04:06.768Z,82.39
2023-01-30T05:06:34.300Z,82.72
2023-01-30T05:09:00.989Z,82.74
2023-01-30T05:11:28.642Z,82.71
2023-01-30T05:13:55.853Z,81.68
2023-01-30T05:16:23.495Z,82.25
2023-01-30T05:18:50.817Z,83.22
2023-01-30T05:21:19.746Z,84.13
2023-01-30T05:23:46.667Z,84.59
2023-01-30T05:26:14.730Z,84.61
2023-01-30T05:28:42.895Z,84.55
2023-01-30T05:31:12.854Z,85.49
2023-01-30T05:33:40.455Z,85.75
2023-01-30T05:36:08.095Z,85.13
2023-01-30T05:38:34.672Z,84.81
2023-01-30T05:41:06.616Z,84.97
2023-01-30T05:43:34.572Z,84.45
2023-01-30T05:46:04.670Z,85.61
2023-01-30T05:48:32.421Z,85.80
2023-01-30T05:51:00.126Z,85.64
2023-01-30T05:53:32.271Z,85.50
2023-01-30T05:56:01.221Z,85.93
2023-01-30T05:58:28.519Z,86.32
2023-01-30T06:00:59.565Z,85.79
2023-01-30T06:03:26.123Z,86.21
2023-01-30T06:05:52.620Z,86.75
2023-01-30T06:08:19.085Z,87.21
2023-01-30T06:10:45.543Z,87.27
2023-01-30T06:13:12.058Z,86.77
2023-01-30T06:15:38.750Z,87.11
2023-01-30T06:18:05.381Z,86.85
2023-01-30T06:20:31.958Z,87.38
2023-01-30T06:22:58.504Z,86.63
2023-01-30T06:25:25.035Z,86.15
2023-01-30T06:27:51.543Z,85.98
2023-01-30T06:30:18.298Z,85.72
2023-01-30T06:32:44.751Z,85.84
2023-01-30T06:35:11.198Z,86.24
2023-01-30T06:37:37.699Z,86.04
2023-01-30T06:40:04.596Z,85.98
2023-01-30T06:42:31.045Z,86.56
2023-01-30T06:44:57.493Z,86.71
2023-01-30T06:47:23.958Z,86.19
2023-01-30T06:49:50.423Z,85.87
2023-01-30T06:52:16.911Z,86.16
2023-01-30T06:54:43.435Z,86.60
2023-01-30T06:57:09.950Z,86.47
2023-01-30T06:59:36.436Z,86.34
2023-01-30T07:02:02.969Z,86.05
2023-01-30T07:04:29.469Z,87.03
2023-01-30T07:06:55.973Z,86.64
2023-01-30T07:09:22.499Z,86.60
2023-01-30T07:11:50.368Z,85.73
2023-01-30T07:14:16.883Z,85.29
2023-01-30T07:16:43.423Z,86.05
2023-01-30T07:19:10.006Z,85.78
2023-01-30T07:21:36.526Z,85.27
2023-01-30T07:24:02.987Z,85.76
2023-01-30T07:26:31.325Z,86.11
2023-01-30T07:28:57.870Z,85.32
2023-01-30T07:31:24.436Z,84.75
2023-01-30T07:33:50.958Z,84.62
2023-01-30T07:36:17.465Z,84.23
2023-01-30T07:38:43.941Z,83.81
2023-01-30T07:41:10.487Z,83.42
2023-01-30T07:43:36.934Z,83.28
2023-01-30T07:46:04.029Z,82.23
2023-01-30T07:48:30.496Z,81.80
2023-01-30T07:50:57.672Z,80.46
2023-01-30T07:53:24.253Z,81.18
2023-01-30T07:55:50.859Z,80.17
2023-01-30T07:58:17.763Z,80.26
2023-01-30T08:00:45.128Z,79.48
2023-01-30T08:03:16.161Z,77.49
2023-01-30T08:05:44.266Z,76.86
2023-01-30T08:08:10.990Z,74.90
2023-01-30T08:10:37.499Z,73.31
2023-01-30T08:13:03.960Z,72.99
2023-01-30T08:15:31.856Z,70.57
2023-01-30T08:17:58.562Z,68.08
2023-01-30T08:20:27.247Z,68.29
2023-01-30T08:22:54.245Z,67.17
2023-01-30T08:25:21.781Z,66.79
2023-01-30T08:27:48.351Z,65.43
2023-01-30T08:30:15.059Z,62.72
2023-01-30T08:32:41.609Z,61.23
2023-01-30T08:35:09.195Z,60.60
2023-01-30T08:37:35.796Z,60.84
2023-01-30T08:40:04.532Z,60.84
2023-01-30T08:42:31.142Z,62.67
2023-01-30T08:44:57.685Z,62.00
2023-01-30T08:47:24.175Z,61.61
2023-01-30T08:49:52.745Z,60.61
2023-01-30T08:52:20.384Z,57.92
2023-01-30T08:54:47.365Z,55.24
2023-01-30T08:57:14.913Z,54.50
2023-01-30T08:59:41.521Z,54.74
2023-01-30T09:02:11.690Z,56.41
2023-01-30T09:04:38.269Z,53.58
2023-01-30T09:07:04.901Z,52.44
2023-01-30T09:09:31.461Z,52.47
2023-01-30T09:11:57.983Z,52.63
2023-01-30T09:14:24.529Z,52.79
2023-01-30T09:16:55.775Z,54.44
2023-01-30T09:19:23.926Z,52.24
2023-01-30T09:21:51.720Z,52.91
2023-01-30T09:24:18.729Z,54.45
2023-01-30T09:26:45.440Z,53.90
2023-01-30T09:29:12.833Z,55.70
2023-01-30T09:31:39.729Z,55.15
2023-01-30T09:34:06.720Z,55.16
2023-01-30T09:36:33.568Z,56.31
2023-01-30T09:39:00.267Z,55.72
2023-01-30T09:41:35.430Z,56.18
2023-01-30T09:44:35.231Z,57.28
2023-01-30T09:47:09.643Z,57.20
2023-01-30T09:49:43.437Z,58.22
2023-01-30T09:52:25.056Z,59.51
2023-01-30T09:54:54.007Z,59.94
2023-01-30T09:57:25.632Z,59.71
2023-01-30T09:59:52.150Z,59.49
2023-01-30T10:02:31.905Z,58.79
2023-01-30T10:05:02.035Z,58.32
2023-01-30T10:08:15.339Z,58.28
2023-01-30T10:11:09.621Z,57.79
2023-01-30T10:14:05.085Z,55.85
2023-01-30T10:16:50.026Z,52.71
2023-01-30T10:19:35.723Z,52.89
2023-01-30T10:22:12.775Z,51.50
2023-01-30T10:25:04.001Z,50.40
2023-01-30T10:27:33.144Z,49.44
2023-01-30T10:30:03.775Z,48.82
2023-01-30T10:32:41.972Z,46.39
2023-01-30T10:35:19.380Z,44.73
2023-01-30T10:38:07.496Z,45.99
2023-01-30T10:40:46.946Z,45.29
2023-01-30T10:43:27.741Z,45.73
2023-01-30T10:45:59.617Z,44.77
2023-01-30T10:48:48.957Z,45.61
2023-01-30T10:51:23.645Z,44.21
2023-01-30T10:53:58.579Z,42.88
2023-01-30T10:56:47.403Z,43.35
2023-01-30T10:59:28.744Z,40.89
2023-01-30T11:02:40.623Z,39.91
2023-01-30T11:05:15.996Z,43.24
2023-01-30T11:07:44.016Z,43.34
2023-01-30T11:10:22.825Z,40.91
2023-01-30T11:12:55.991Z,41.40
2023-01-30T11:15:24.861Z,43.12
2023-01-30T11:18:22.790Z,43.56
2023-01-30T11:21:03.070Z,47.18
2023-01-30T11:23:34.931Z,48.86
2023-01-30T11:26:11.248Z,49.23
2023-01-30T11:28:44.332Z,50.56
2023-01-30T11:31:28.314Z,49.93
2023-01-30T11:34:03.153Z,50.68
2023-01-30T11:36:32.414Z,51.93
2023-01-30T11:39:06.254Z,52.74
2023-01-30T11:41:32.735Z,52.94
2023-01-30T11:44:05.318Z,52.88
2023-01-30T11:46:36.890Z,51.76
2023-01-30T11:49:49.431Z,51.82
2023-01-30T11:51:57.371Z,53.32
2023-01-30T11:54:45.207Z,53.43
2023-01-30T11:57:15.318Z,52.33
2023-01-30T11:59:45.894Z,54.18
2023-01-30T12:02:19.616Z,52.82
2023-01-30T12:04:51.076Z,52.79
2023-01-30T12:07:25.995Z,52.09
2023-01-30T12:09:54.191Z,53.22
2023-01-30T12:12:28.939Z,51.63
2023-01-30T12:15:05.829Z,54.03
2023-01-30T12:17:46.565Z,53.45
2023-01-30T12:20:27.868Z,55.33
2023-01-30T12:23:11.377Z,56.44
2023-01-30T12:25:59.627Z,56.27
2023-01-30T12:28:45.395Z,56.92
2023-01-30T12:31:32.999Z,57.00
2023-01-30T12:34:00.351Z,57.37
2023-01-30T12:36:32.759Z,57.70
2023-01-30T12:39:14.950Z,58.35
2023-01-30T12:42:00.518Z,59.64
2023-01-30T12:44:51.809Z,60.02
2023-01-30T12:47:22.106Z,61.24
2023-01-30T12:50:01.278Z,61.82
2023-01-30T12:52:40.423Z,61.54
2023-01-30T12:55:09.984Z,62.24
2023-01-30T12:57:49.065Z,62.96
2023-01-30T13:00:37.025Z,62.67
2023-01-30T13:03:21.517Z,62.78
2023-01-30T13:06:10.676Z,62.84
2023-01-30T13:08:51.692Z,63.62
2023-01-30T13:11:39.836Z,64.37
2023-01-30T13:14:15.525Z,64.61
2023-01-30T13:16:41.994Z,64.43
2023-01-30T13:19:20.949Z,65.00
2023-01-30T13:21:56.277Z,65.59
2023-01-30T13:24:48.678Z,65.95
2023-01-30T13:27:19.997Z,65.09
2023-01-30T13:29:48.901Z,64.87
2023-01-30T13:32:35.615Z,65.41
2023-01-30T13:35:06.784Z,65.24
2023-01-30T13:37:34.281Z,64.77
2023-01-30T13:40:16.102Z,65.40
2023-01-30T13:42:50.015Z,65.37
2023-01-30T13:45:23.727Z,65.34
2023-01-30T13:47:53.247Z,66.59
2023-01-30T13:50:28.938Z,67.38
2023-01-30T13:53:22.684Z,66.42
2023-01-30T13:55:58.374Z,67.43
2023-01-30T13:58:43.882Z,68.52
2023-01-30T14:01:14.339Z,69.24
2023-01-30T14:03:42.041Z,69.77
2023-01-30T14:06:10.846Z,69.89
2023-01-30T14:08:46.419Z,70.33
2023-01-30T14:11:33.908Z,71.16
2023-01-30T14:14:04.398Z,70.50
2023-01-30T14:16:51.926Z,70.97
2023-01-30T14:19:24.199Z,70.30
2023-01-30T14:21:58.862Z,71.17
2023-01-30T14:24:27.494Z,71.42
2023-01-30T14:27:04.848Z,72.50
2023-01-30T14:29:37.460Z,72.61
2023-01-30T14:32:10.062Z,72.96
2023-01-30T14:34:41.630Z,73.29
2023-01-30T14:37:39.205Z,73.84
2023-01-30T14:40:36.031Z,74.71
2023-01-30T14:43:20.335Z,75.33
2023-01-30T14:45:51.503Z,75.02
2023-01-30T14:48:39.815Z,75.58
2023-01-30T14:51:45.372Z,75.63
2023-01-30T14:54:11.837Z,76.34
2023-01-30T14:56:58.587Z,76.33
2023-01-30T14:59:33.857Z,76.76
2023-01-30T15:02:21.541Z,77.30
2023-01-30T15:04:57.677Z,76.94
2023-01-30T15:07:41.308Z,77.88
2023-01-30T15:10:23.686Z,78.53
2023-01-30T15:13:04.535Z,78.26
2023-01-30T15:15:49.435Z,78.19
2023-01-30T15:18:27.987Z,78.28
2023-01-30T15:21:19.593Z,78.65
2023-01-30T15:24:00.894Z,78.75
2023-01-30T15:26:56.686Z,78.48
2023-01-30T15:29:44.503Z,78.42
2023-01-30T15:32:20.080Z,79.12
2023-01-30T15:34:58.331Z,80.86
2023-01-30T15:37:30.983Z,81.36
2023-01-30T15:40:15.656Z,83.15
2023-01-30T15:42:51.584Z,84.13
2023-01-30T15:45:27.989Z,85.00
2023-01-30T15:48:38.024Z,84.85
2023-01-30T15:51:05.063Z,85.61
2023-01-30T15:53:36.042Z,86.15
2023-01-30T15:56:07.174Z,85.72
2023-01-30T15:58:38.056Z,85.68
2023-01-30T16:01:04.905Z,85.43
2023-01-30T16:03:36.617Z,84.85
2023-01-30T16:06:03.838Z,83.97
2023-01-30T16:08:32.879Z,84.39
2023-01-30T16:11:00.742Z,84.36
2023-01-30T16:13:29.408Z,86.95
2023-01-30T16:16:05.076Z,85.09
2023-01-30T16:18:46.125Z,85.60
2023-01-30T16:21:28.530Z,85.94
2023-01-30T16:24:00.897Z,86.37
2023-01-30T16:26:27.736Z,86.53
2023-01-30T16:29:02.387Z,86.99
2023-01-30T16:31:39.202Z,86.17
2023-01-30T16:34:05.858Z,85.99
2023-01-30T16:36:39.638Z,86.22
2023-01-30T16:39:27.745Z,86.52
2023-01-30T16:41:56.190Z,94.91
2023-01-30T16:44:23.918Z,88.24
2023-01-30T16:46:54.771Z,92.51
2023-01-30T16:49:30.159Z,86.08
2023-01-30T16:52:05.351Z,82.88
2023-01-30T16:54:46.149Z,84.84
2023-01-30T16:57:37.366Z,86.58
2023-01-30T17:00:10.093Z,87.39
2023-01-30T17:02:40.031Z,86.25
2023-01-30T17:05:20.521Z,86.19
2023-01-30T17:07:48.397Z,87.65
2023-01-30T17:10:39.578Z,87.73
2023-01-30T17:13:35.735Z,87.14
2023-01-30T17:16:27.064Z,86.88
2023-01-30T17:18:56.022Z,86.64
2023-01-30T17:21:25.446Z,88.25
2023-01-30T17:23:59.593Z,88.35
2023-01-30T17:26:26.150Z,88.66
2023-01-30T17:28:52.694Z,89.34
2023-01-30T17:31:20.935Z,89.36
2023-01-30T17:33:47.660Z,88.85
2023-01-30T17:36:23.073Z,89.42
2023-01-30T17:38:50.696Z,89.30
2023-01-30T17:41:22.946Z,90.46
2023-01-30T17:43:50.709Z,90.74
2023-01-30T17:46:18.090Z,89.42
2023-01-30T17:48:44.744Z,90.21
2023-01-30T17:51:14.339Z,91.73
2023-01-30T17:53:41.881Z,89.47
2023-01-30T17:56:30.044Z,90.32
2023-01-30T17:58:56.520Z,90.69
2023-01-30T18:01:23.001Z,90.43
2023-01-30T18:03:49.548Z,92.82
2023-01-30T18:06:16.404Z,91.97
2023-01-30T18:08:42.976Z,92.29
2023-01-30T18:11:11.847Z,93.45
2023-01-30T18:13:48.167Z,92.99
2023-01-30T18:16:19.868Z,92.90
2023-01-30T18:18:46.711Z,92.96
2023-01-30T18:21:13.181Z,93.06
2023-01-30T18:23:39.689Z,92.55
2023-01-30T18:26:06.275Z,93.01
2023-01-30T18:28:32.884Z,92.20
2023-01-30T18:30:59.626Z,91.65
2023-01-30T18:33:26.237Z,91.55
2023-01-30T18:35:52.725Z,92.05
2023-01-30T18:38:19.236Z,92.42
2023-01-30T18:40:45.854Z,91.60
2023-01-30T18:43:12.429Z,91.99
2023-01-30T18:45:38.944Z,92.93
2023-01-30T18:48:05.675Z,93.06
2023-01-30T18:50:32.257Z,93.25
2023-01-30T18:52:58.797Z,92.83
2023-01-30T18:55:25.690Z,93.08
2023-01-30T18:57:52.634Z,94.02
2023-01-30T19:00:21.350Z,94.82
2023-01-30T19:02:52.885Z,95.31
2023-01-30T19:05:20.124Z,95.28
2023-01-30T19:07:46.728Z,95.82
2023-01-30T19:10:17.345Z,96.02
2023-01-30T19:13:03.437Z,96.66
2023-01-30T19:15:30.023Z,97.01
2023-01-30T19:17:57.201Z,97.30
2023-01-30T19:20:24.811Z,97.51
2023-01-30T19:22:51.590Z,97.52
2023-01-30T19:25:18.140Z,97.27
2023-01-30T19:27:44.745Z,97.01
2023-01-30T19:30:11.826Z,97.76
2023-01-30T19:32:38.320Z,97.59
2023-01-30T19:35:05.443Z,97.27
2023-01-30T19:37:31.943Z,96.60
2023-01-30T19:39:58.519Z,97.16
2023-01-30T19:42:25.163Z,97.20
2023-01-30T19:44:51.659Z,96.75
2023-01-30T19:47:21.692Z,96.86
2023-01-30T19:49:48.426Z,96.92
2023-01-30T19:52:14.905Z,97.37
2023-01-30T19:54:41.390Z,96.78
2023-01-30T19:57:07.937Z,97.68
2023-01-30T19:59:38.677Z,98.01
2023-01-30T20:02:06.758Z,97.61
2023-01-30T20:04:33.296Z,96.99
2023-01-30T20:06:59.816Z,96.82
2023-01-30T20:09:26.362Z,97.01
2023-01-30T20:11:52.850Z,96.56
2023-01-30T20:14:19.336Z,95.98
2023-01-30T20:16:46.314Z,95.68
2023-01-30T20:19:15.428Z,95.87
2023-01-30T20:21:42.901Z,96.11
2023-01-30T20:24:13.704Z,96.19
2023-01-30T20:26:40.800Z,96.48
2023-01-30T20:29:09.168Z,96.26
2023-01-30T20:31:38.257Z,96.53
2023-01-30T20:34:07.235Z,95.96
2023-01-30T20:36:34.129Z,96.89
2023-01-30T20:39:04.069Z,97.24
2023-01-30T20:41:32.457Z,96.56
2023-01-30T20:43:59.443Z,96.45
2023-01-30T20:46:31.562Z,95.92
2023-01-30T20:49:01.284Z,96.29
2023-01-30T20:51:30.456Z,96.11
2023-01-30T20:54:05.609Z,96.45
2023-01-30T20:56:41.647Z,95.79
2023-01-30T20:59:08.758Z,96.76
2023-01-30T21:01:36.171Z,97.15
2023-01-30T21:04:08.252Z,97.82
2023-01-30T21:06:42.500Z,97.41
2023-01-30T21:09:17.742Z,96.27
2023-01-30T21:11:44.524Z,96.39
2023-01-30T21:14:12.732Z,95.75
2023-01-30T21:16:39.545Z,95.82
2023-01-30T21:19:08.157Z,96.37
2023-01-30T21:21:41.178Z,96.65
2023-01-30T21:24:12.178Z,96.13
2023-01-30T21:26:41.281Z,97.99
2023-01-30T21:29:08.641Z,96.50
2023-01-30T21:31:36.134Z,96.96
2023-01-30T21:34:03.321Z,98.06
2023-01-30T21:36:29.837Z,97.41
2023-01-30T21:39:15.198Z,97.32
2023-01-30T21:41:58.778Z,96.35
2023-01-30T21:44:27.879Z,95.96
2023-01-30T21:46:54.873Z,96.03
2023-01-30T21:49:22.138Z,95.85
2023-01-30T21:51:49.319Z,95.44
2023-01-30T21:54:17.599Z,97.45
2023-01-30T21:56:44.861Z,98.69
2023-01-30T21:59:12.297Z,99.29
2023-01-30T22:01:40.088Z,98.50
2023-01-30T22:04:09.128Z,97.75
2023-01-30T22:06:37.769Z,96.70
2023-01-30T22:09:05.921Z,97.70
2023-01-30T22:11:34.537Z,97.35
2023-01-30T22:14:01.045Z,96.88
2023-01-30T22:16:29.214Z,96.60
2023-01-30T22:19:01.487Z,96.36
2023-01-30T22:21:32.302Z,95.61
2023-01-30T22:23:59.254Z,95.45
2023-01-30T22:26:26.701Z,95.33
2023-01-30T22:28:55.398Z,95.03
2023-01-30T22:31:23.393Z,95.97
2023-01-30T22:33:55.144Z,95.81
2023-01-30T22:36:27.154Z,95.72
2023-01-30T22:38:54.341Z,95.95
2023-01-30T22:41:26.355Z,96.35
2023-01-30T22:43:55.594Z,96.12
2023-01-30T22:46:31.530Z,96.15
2023-01-30T22:48:59.328Z,96.13
2023-01-30T22:51:31.588Z,95.84
2023-01-30T22:54:03.636Z,96.21
2023-01-30T22:56:35.873Z,96.49
2023-01-30T22:59:02.368Z,97.64
2023-01-30T23:01:32.062Z,97.17
2023-01-30T23:04:01.648Z,97.18
2023-01-30T23:06:30.057Z,97.65
2023-01-30T23:08:56.605Z,97.24
2023-01-30T23:11:38.237Z,97.55
2023-01-30T23:14:11.129Z,97.64
2023-01-30T23:16:39.625Z,96.97
2023-01-30T23:19:07.657Z,96.80
2023-01-30T23:21:39.114Z,97.07
2023-01-30T23:24:11.938Z,97.73
2023-01-30T23:26:41.221Z,96.97
2023-01-30T23:29:10.241Z,97.26
2023-01-30T23:31:37.430Z,97.38
2023-01-30T23:34:06.820Z,97.07
2023-01-30T23:36:34.364Z,97.22
2023-01-30T23:39:01.200Z,97.40
2023-01-30T23:41:30.620Z,96.94
2023-01-30T23:43:58.345Z,96.75
2023-01-30T23:46:30.999Z,97.36
2023-01-30T23:48:59.539Z,97.96
2023-01-30T23:51:29.267Z,98.19
2023-01-30T23:53:56.415Z,98.84
2023-01-30T23:56:25.344Z,98.84
2023-01-30T23:58:51.890Z,98.51
